Time;durP1;ratioP1;P1;durP2;ratioP2;P2;SDS_P1;SDS_P2;PMS_P1;PMS_P2;Temp;Humidity;BMP_temperature;BMP_pressure;BME280_temperature;BME280_humidity;BME280_pressure;Samples;Min_cycle;Max_cycle;Signal;HPM_P1;HPM_P2
2022/07/24 00:02:26;;;;;;;10.30;9.13;;;;;;;;;;5076542;28;20268;-63
2022/07/24 00:04:56;;;;;;;11.07;9.30;;;;;;;;;;5076368;28;20272;-61
2022/07/24 00:07:25;;;;;;;10.85;9.73;;;;;;;;;;5076231;28;20211;-61
2022/07/24 00:09:52;;;;;;;12.25;10.82;;;;;;;;;;5076450;28;20207;-61
2022/07/24 00:12:19;;;;;;;14.02;10.63;;;;;;;;;;5076412;28;20203;-61
2022/07/24 00:14:46;;;;;;;12.65;10.20;;;;;;;;;;5076206;28;20680;-61
2022/07/24 00:17:13;;;;;;;14.63;10.85;;;;;;;;;;5076262;28;20719;-61
2022/07/24 00:19:40;;;;;;;14.55;10.80;;;;;;;;;;5076208;28;20200;-60
2022/07/24 00:22:07;;;;;;;15.02;11.88;;;;;;;;;;5076378;28;20642;-62
2022/07/24 00:24:34;;;;;;;14.70;11.18;;;;;;;;;;5077045;28;20203;-62
2022/07/24 00:27:01;;;;;;;17.52;11.68;;;;;;;;;;5076143;28;20203;-62
2022/07/24 00:29:28;;;;;;;15.10;11.00;;;;;;;;;;5108830;28;20642;-62
2022/07/24 00:31:55;;;;;;;18.92;11.20;;;;;;;;;;5075976;28;20703;-62
2022/07/24 00:34:22;;;;;;;14.20;11.75;;;;;;;;;;5075892;28;20199;-62
2022/07/24 00:36:49;;;;;;;15.93;12.05;;;;;;;;;;5075741;28;20277;-62
2022/07/24 00:39:16;;;;;;;16.02;10.98;;;;;;;;;;5075876;28;20230;-62
2022/07/24 00:41:43;;;;;;;13.85;10.93;;;;;;;;;;5075892;28;20199;-63
2022/07/24 00:44:13;;;;;;;15.13;10.57;;;;;;;;;;5076110;28;20203;-62
2022/07/24 00:46:43;;;;;;;13.95;10.63;;;;;;;;;;5075701;28;20203;-61
2022/07/24 00:49:12;;;;;;;12.85;11.20;;;;;;;;;;5075660;28;20210;-62
2022/07/24 00:51:49;;;;;;;12.90;10.05;;;;;;;;;;5076026;28;20527;-62
2022/07/24 00:54:17;;;;;;;13.70;10.85;;;;;;;;;;5075408;28;20203;-61
2022/07/24 00:56:46;;;;;;;13.38;10.48;;;;;;;;;;5075892;28;20227;-61
2022/07/24 00:59:13;;;;;;;12.27;10.98;;;;;;;;;;5075787;28;20235;-61
2022/07/24 01:01:40;;;;;;;16.95;11.38;;;;;;;;;;5074511;28;20203;-61
2022/07/24 01:04:08;;;;;;;15.98;12.05;;;;;;;;;;5075715;28;20207;-64
2022/07/24 01:06:43;;;;;;;14.00;11.15;;;;;;;;;;5073376;28;20203;-64
2022/07/24 01:09:11;;;;;;;18.70;11.65;;;;;;;;;;5069422;28;20635;-60
2022/07/24 01:11:38;;;;;;;16.98;12.13;;;;;;;;;;5055389;28;20212;-63
2022/07/24 01:14:06;;;;;;;16.75;12.18;;;;;;;;;;5055231;28;20207;-62
2022/07/24 01:16:34;;;;;;;13.80;12.15;;;;;;;;;;5055206;28;20250;-61
2022/07/24 01:19:02;;;;;;;15.77;11.85;;;;;;;;;;5055121;28;20337;-62
2022/07/24 01:21:30;;;;;;;14.40;11.95;;;;;;;;;;5055229;28;20220;-61
2022/07/24 01:23:57;;;;;;;14.82;12.13;;;;;;;;;;5054879;28;20658;-61
2022/07/24 01:26:24;;;;;;;18.10;11.73;;;;;;;;;;5055073;28;20269;-61
2022/07/24 01:28:51;;;;;;;13.98;11.57;;;;;;;;;;5055135;28;20200;-61
2022/07/24 01:31:18;;;;;;;16.60;11.77;;;;;;;;;;5055056;28;20203;-62
2022/07/24 01:33:45;;;;;;;16.02;11.38;;;;;;;;;;5055359;28;20523;-60
2022/07/24 01:36:12;;;;;;;15.52;12.05;;;;;;;;;;5054675;28;20208;-62
2022/07/24 01:38:39;;;;;;;16.15;11.68;;;;;;;;;;5054933;28;20630;-62
2022/07/24 01:41:06;;;;;;;13.18;10.98;;;;;;;;;;5054796;28;20200;-63
2022/07/24 01:43:33;;;;;;;19.38;12.13;;;;;;;;;;5054858;28;20273;-62
2022/07/24 01:46:00;;;;;;;16.65;11.88;;;;;;;;;;5055362;28;20211;-62
2022/07/24 01:48:27;;;;;;;13.90;11.35;;;;;;;;;;5054815;28;20205;-62
2022/07/24 01:50:54;;;;;;;16.75;11.60;;;;;;;;;;5053957;28;20223;-62
2022/07/24 01:53:21;;;;;;;14.55;11.38;;;;;;;;;;5054791;28;20253;-62
2022/07/24 01:55:52;;;;;;;14.98;11.68;;;;;;;;;;5054727;28;20560;-61
2022/07/24 01:58:19;;;;;;;14.05;12.25;;;;;;;;;;5054403;28;20591;-61
2022/07/24 02:00:49;;;;;;;16.48;12.10;;;;;;;;;;5054530;28;20697;-61
2022/07/24 02:03:17;;;;;;;14.73;11.48;;;;;;;;;;5054598;28;20211;-61
2022/07/24 02:05:44;;;;;;;15.05;12.00;;;;;;;;;;5054411;28;20204;-60
2022/07/24 02:08:11;;;;;;;15.63;12.63;;;;;;;;;;5054186;28;20265;-62
2022/07/24 02:10:39;;;;;;;16.73;11.40;;;;;;;;;;5054266;28;20675;-61
2022/07/24 02:13:06;;;;;;;16.63;11.50;;;;;;;;;;5055817;28;20246;-60
2022/07/24 02:15:33;;;;;;;13.90;11.73;;;;;;;;;;5058125;28;20593;-61
2022/07/24 02:18:02;;;;;;;11.88;10.63;;;;;;;;;;5058061;28;20235;-59
2022/07/24 02:20:29;;;;;;;15.88;11.93;;;;;;;;;;5058105;28;20546;-61
2022/07/24 02:22:56;;;;;;;16.35;11.90;;;;;;;;;;5057997;28;20204;-62
2022/07/24 02:25:23;;;;;;;19.13;11.65;;;;;;;;;;5058026;28;20206;-61
2022/07/24 02:27:51;;;;;;;13.40;11.60;;;;;;;;;;5058075;28;20204;-61
2022/07/24 02:30:21;;;;;;;11.90;10.68;;;;;;;;;;5058272;28;20211;-61
2022/07/24 02:32:48;;;;;;;15.43;11.80;;;;;;;;;;5057950;28;20747;-61
2022/07/24 02:35:16;;;;;;;15.30;10.88;;;;;;;;;;5058073;28;20203;-61
2022/07/24 02:37:44;;;;;;;12.38;10.45;;;;;;;;;;5057601;28;20254;-62
2022/07/24 02:40:12;;;;;;;12.80;10.25;;;;;;;;;;5057935;28;20204;-61
2022/07/24 02:42:40;;;;;;;14.43;10.65;;;;;;;;;;5057618;28;20200;-61
2022/07/24 02:45:07;;;;;;;12.82;11.20;;;;;;;;;;5057704;28;20623;-61
2022/07/24 02:47:35;;;;;;;14.45;11.38;;;;;;;;;;5057549;28;20208;-61
2022/07/24 02:50:03;;;;;;;13.82;11.18;;;;;;;;;;5057435;28;20227;-61
2022/07/24 02:52:30;;;;;;;17.90;11.38;;;;;;;;;;5057678;28;20200;-64
2022/07/24 02:54:57;;;;;;;15.55;10.60;;;;;;;;;;5057746;28;20200;-64
2022/07/24 02:57:24;;;;;;;14.95;10.07;;;;;;;;;;5057431;28;20289;-64
2022/07/24 02:59:52;;;;;;;15.35;10.52;;;;;;;;;;5057521;28;20682;-63
2022/07/24 03:02:19;;;;;;;12.07;9.93;;;;;;;;;;5057537;28;20600;-61
2022/07/24 03:04:47;;;;;;;14.55;10.68;;;;;;;;;;5057827;28;20196;-61
2022/07/24 03:07:14;;;;;;;12.73;9.93;;;;;;;;;;5057402;28;20285;-61
2022/07/24 03:09:41;;;;;;;11.90;10.18;;;;;;;;;;5057133;28;20654;-61
2022/07/24 03:12:08;;;;;;;11.50;10.13;;;;;;;;;;5057505;28;20196;-61
2022/07/24 03:14:37;;;;;;;14.68;10.32;;;;;;;;;;5057617;28;20250;-60
2022/07/24 03:17:05;;;;;;;14.38;10.63;;;;;;;;;;5057185;28;20231;-61
2022/07/24 03:19:32;;;;;;;13.07;10.40;;;;;;;;;;5057659;28;20215;-61
2022/07/24 03:21:59;;;;;;;12.60;10.82;;;;;;;;;;5057120;28;20273;-61
2022/07/24 03:24:26;;;;;;;17.23;11.95;;;;;;;;;;5057110;28;20281;-62
2022/07/24 03:26:53;;;;;;;16.52;11.68;;;;;;;;;;5057129;28;20232;-62
2022/07/24 03:29:20;;;;;;;15.48;12.55;;;;;;;;;;5057240;28;20269;-60
2022/07/24 03:31:47;;;;;;;13.20;11.45;;;;;;;;;;5056961;28;20199;-62
2022/07/24 03:34:14;;;;;;;15.82;11.93;;;;;;;;;;5057135;28;20208;-61
2022/07/24 03:36:41;;;;;;;14.10;11.60;;;;;;;;;;5057002;28;20621;-60
2022/07/24 03:39:08;;;;;;;14.52;12.02;;;;;;;;;;5057052;28;20203;-60
2022/07/24 03:41:36;;;;;;;15.98;11.88;;;;;;;;;;5056913;28;20212;-61
2022/07/24 03:44:03;;;;;;;14.25;11.52;;;;;;;;;;5077365;28;20204;-60
2022/07/24 03:46:30;;;;;;;16.17;11.55;;;;;;;;;;5062588;28;20208;-58
2022/07/24 03:48:57;;;;;;;16.30;11.77;;;;;;;;;;5056749;28;20208;-61
2022/07/24 03:51:25;;;;;;;13.80;11.10;;;;;;;;;;5057269;28;20219;-62
2022/07/24 03:53:53;;;;;;;13.85;11.48;;;;;;;;;;5076656;28;20523;-63
2022/07/24 03:56:21;;;;;;;14.77;11.57;;;;;;;;;;5076641;28;20210;-61
2022/07/24 03:58:52;;;;;;;12.93;10.65;;;;;;;;;;5076849;28;20324;-61
2022/07/24 04:01:20;;;;;;;13.25;11.75;;;;;;;;;;5086857;28;20656;-62
2022/07/24 04:03:47;;;;;;;14.27;11.35;;;;;;;;;;5086638;28;20524;-61
2022/07/24 04:06:14;;;;;;;13.20;11.57;;;;;;;;;;5096727;28;20218;-61
2022/07/24 04:08:41;;;;;;;13.88;10.40;;;;;;;;;;5096599;28;20210;-61
2022/07/24 04:11:08;;;;;;;10.65;9.43;;;;;;;;;;5095563;28;20645;-61
2022/07/24 04:13:35;;;;;;;11.30;9.48;;;;;;;;;;5096615;28;20622;-60
2022/07/24 04:16:08;;;;;;;14.52;9.23;;;;;;;;;;5097074;28;20206;-61
2022/07/24 04:18:35;;;;;;;11.98;9.57;;;;;;;;;;5096160;28;20245;-60
2022/07/24 04:21:02;;;;;;;10.57;8.70;;;;;;;;;;5096461;28;20206;-61
2022/07/24 04:23:29;;;;;;;16.08;9.52;;;;;;;;;;5096452;28;20661;-61
2022/07/24 04:25:56;;;;;;;16.42;9.40;;;;;;;;;;5096083;28;20199;-62
2022/07/24 04:28:24;;;;;;;11.15;9.98;;;;;;;;;;5096433;28;20268;-62
2022/07/24 04:30:51;;;;;;;10.15;9.15;;;;;;;;;;5096274;28;20252;-62
2022/07/24 04:33:18;;;;;;;12.93;9.35;;;;;;;;;;5096101;28;20218;-62
2022/07/24 04:35:45;;;;;;;11.50;9.25;;;;;;;;;;5095848;28;20202;-62
2022/07/24 04:38:11;;;;;;;13.65;10.13;;;;;;;;;;5095271;28;20219;-62
2022/07/24 04:40:39;;;;;;;12.88;9.90;;;;;;;;;;5096233;28;20210;-60
2022/07/24 04:43:06;;;;;;;13.63;10.75;;;;;;;;;;5095979;28;20199;-60
2022/07/24 04:45:37;;;;;;;13.25;10.90;;;;;;;;;;5095680;28;20571;-60
2022/07/24 04:48:05;;;;;;;12.98;10.60;;;;;;;;;;5094064;28;20257;-60
2022/07/24 04:50:32;;;;;;;14.90;11.20;;;;;;;;;;5094570;28;20210;-60
2022/07/24 04:52:59;;;;;;;13.90;12.05;;;;;;;;;;5095424;28;20202;-60
2022/07/24 04:55:26;;;;;;;12.68;11.38;;;;;;;;;;5096188;28;20222;-60
2022/07/24 04:57:52;;;;;;;13.88;11.98;;;;;;;;;;5095433;28;20522;-59
2022/07/24 05:00:19;;;;;;;15.50;10.82;;;;;;;;;;5095923;28;20267;-60
2022/07/24 05:02:47;;;;;;;16.05;11.48;;;;;;;;;;5095782;28;20209;-60
2022/07/24 05:05:13;;;;;;;18.25;10.43;;;;;;;;;;5095577;28;20596;-60
2022/07/24 05:07:41;;;;;;;16.55;11.38;;;;;;;;;;5095347;28;20206;-61
2022/07/24 05:10:08;;;;;;;18.50;11.73;;;;;;;;;;5095657;28;20268;-61
2022/07/24 05:12:35;;;;;;;17.48;12.45;;;;;;;;;;5095277;28;20669;-61
2022/07/24 05:15:04;;;;;;;21.90;14.07;;;;;;;;;;5095624;28;20202;-61
2022/07/24 05:17:31;;;;;;;21.05;14.73;;;;;;;;;;5095466;28;20676;-61
2022/07/24 05:19:58;;;;;;;16.20;13.93;;;;;;;;;;5095421;28;20213;-60
2022/07/24 05:22:25;;;;;;;22.95;14.80;;;;;;;;;;5095441;28;20267;-60
2022/07/24 05:24:52;;;;;;;23.45;15.85;;;;;;;;;;5095267;28;20597;-62
2022/07/24 05:27:19;;;;;;;19.10;15.07;;;;;;;;;;5093791;28;20293;-62
2022/07/24 05:29:46;;;;;;;24.85;16.52;;;;;;;;;;5095240;28;20198;-61
2022/07/24 05:32:13;;;;;;;23.10;16.83;;;;;;;;;;5095040;28;20633;-60
2022/07/24 05:34:40;;;;;;;20.40;15.85;;;;;;;;;;5094905;28;20657;-60
2022/07/24 05:37:08;;;;;;;18.85;15.38;;;;;;;;;;5095278;28;20194;-60
2022/07/24 05:39:35;;;;;;;18.50;14.75;;;;;;;;;;5094362;28;20350;-60
2022/07/24 05:42:03;;;;;;;17.38;14.25;;;;;;;;;;5094992;28;20207;-59
2022/07/24 05:44:30;;;;;;;16.95;11.55;;;;;;;;;;5092905;28;20234;-59
2022/07/24 05:46:57;;;;;;;13.88;10.68;;;;;;;;;;5066282;28;20247;-60
2022/07/24 05:49:25;;;;;;;10.82;8.18;;;;;;;;;;5073416;28;20219;-61
2022/07/24 05:51:52;;;;;;;8.73;5.80;;;;;;;;;;5073171;28;20235;-60
2022/07/24 05:54:19;;;;;;;5.38;3.78;;;;;;;;;;5073626;28;20686;-61
2022/07/24 05:56:46;;;;;;;6.00;3.92;;;;;;;;;;5073171;28;20227;-60
2022/07/24 05:59:13;;;;;;;3.90;2.78;;;;;;;;;;5073421;28;20247;-59
2022/07/24 06:01:40;;;;;;;9.90;2.63;;;;;;;;;;5072933;28;20227;-60
2022/07/24 06:04:08;;;;;;;3.03;2.17;;;;;;;;;;5073718;28;20685;-59
2022/07/24 06:06:35;;;;;;;3.63;1.70;;;;;;;;;;5073786;28;20317;-60
2022/07/24 06:09:02;;;;;;;6.88;1.75;;;;;;;;;;5073821;28;20235;-59
2022/07/24 06:11:30;;;;;;;4.13;1.55;;;;;;;;;;5073760;28;20235;-61
2022/07/24 06:13:57;;;;;;;3.55;1.70;;;;;;;;;;5073500;28;20242;-58
2022/07/24 06:16:26;;;;;;;6.05;1.73;;;;;;;;;;5073397;28;20242;-58
2022/07/24 06:18:53;;;;;;;2.88;1.40;;;;;;;;;;5073483;28;20281;-59
2022/07/24 06:21:20;;;;;;;3.28;1.33;;;;;;;;;;5073618;28;20225;-60
2022/07/24 06:23:47;;;;;;;3.53;1.50;;;;;;;;;;5073385;28;20743;-60
2022/07/24 06:26:14;;;;;;;4.40;1.20;;;;;;;;;;5073379;28;20234;-60
2022/07/24 06:28:40;;;;;;;4.78;1.10;;;;;;;;;;5073592;28;20705;-60
2022/07/24 06:31:07;;;;;;;13.70;2.25;;;;;;;;;;5072862;28;20234;-59
2022/07/24 06:33:42;;;;;;;3.60;1.10;;;;;;;;;;5073696;28;20534;-59
2022/07/24 06:36:09;;;;;;;3.38;1.20;;;;;;;;;;5073629;28;20258;-60
2022/07/24 06:38:36;;;;;;;11.32;1.30;;;;;;;;;;5072423;28;20243;-61
2022/07/24 06:41:03;;;;;;;3.50;1.10;;;;;;;;;;5073093;28;20238;-61
2022/07/24 06:43:30;;;;;;;4.22;1.52;;;;;;;;;;5073384;28;20293;-60
2022/07/24 06:45:57;;;;;;;4.40;1.35;;;;;;;;;;5072541;28;20674;-60
2022/07/24 06:48:24;;;;;;;5.55;1.10;;;;;;;;;;5073350;28;20227;-61
2022/07/24 06:50:51;;;;;;;6.25;1.65;;;;;;;;;;5073013;28;20669;-60
2022/07/24 06:53:18;;;;;;;6.22;1.77;;;;;;;;;;5073573;28;20253;-63
2022/07/24 06:55:46;;;;;;;8.23;1.48;;;;;;;;;;5073319;28;20219;-60
2022/07/24 06:58:13;;;;;;;2.92;1.35;;;;;;;;;;5072921;28;20280;-59
2022/07/24 07:00:40;;;;;;;4.80;1.52;;;;;;;;;;5075156;28;20238;-60
2022/07/24 07:03:07;;;;;;;5.82;1.15;;;;;;;;;;5056773;28;20322;-61
2022/07/24 07:05:35;;;;;;;7.43;1.13;;;;;;;;;;5056159;28;20230;-60
2022/07/24 07:08:02;;;;;;;3.28;1.10;;;;;;;;;;5056751;28;20224;-61
2022/07/24 07:10:29;;;;;;;4.93;1.00;;;;;;;;;;5056625;28;20625;-61
2022/07/24 07:12:56;;;;;;;8.90;1.67;;;;;;;;;;5056305;28;20228;-61
2022/07/24 07:15:23;;;;;;;8.15;1.52;;;;;;;;;;5056257;28;20235;-61
2022/07/24 07:17:50;;;;;;;8.57;1.30;;;;;;;;;;5056292;28;20231;-61
2022/07/24 07:20:17;;;;;;;5.30;1.15;;;;;;;;;;5056696;28;20228;-61
2022/07/24 07:22:44;;;;;;;6.30;1.13;;;;;;;;;;5060672;28;20666;-62
2022/07/24 07:25:11;;;;;;;3.65;1.20;;;;;;;;;;5076217;28;20228;-63
2022/07/24 07:27:39;;;;;;;4.25;1.30;;;;;;;;;;5075753;28;20712;-63
2022/07/24 07:30:07;;;;;;;6.80;1.38;;;;;;;;;;5074750;28;20577;-61
2022/07/24 07:32:34;;;;;;;1.42;1.00;;;;;;;;;;5074845;28;20289;-60
2022/07/24 07:35:02;;;;;;;4.07;1.17;;;;;;;;;;5075609;28;20227;-60
2022/07/24 07:37:31;;;;;;;6.28;1.05;;;;;;;;;;5076329;28;20242;-60
2022/07/24 07:39:58;;;;;;;11.02;1.70;;;;;;;;;;5075861;28;20274;-58
2022/07/24 07:42:25;;;;;;;5.57;1.50;;;;;;;;;;5076042;28;20546;-60
2022/07/24 07:44:52;;;;;;;4.53;1.20;;;;;;;;;;5075276;28;20235;-60
2022/07/24 07:47:19;;;;;;;4.28;1.38;;;;;;;;;;5076316;28;20334;-60
2022/07/24 07:49:46;;;;;;;10.40;1.75;;;;;;;;;;5075796;28;20220;-59
2022/07/24 07:52:13;;;;;;;5.82;1.15;;;;;;;;;;5076060;28;20237;-60
2022/07/24 07:54:41;;;;;;;4.55;1.40;;;;;;;;;;5076077;28;20227;-60
2022/07/24 07:57:08;;;;;;;4.10;1.52;;;;;;;;;;5075933;28;20242;-60
2022/07/24 07:59:35;;;;;;;6.75;1.40;;;;;;;;;;5075113;28;20239;-60
2022/07/24 08:02:02;;;;;;;4.85;1.33;;;;;;;;;;5075281;28;20227;-60
2022/07/24 08:04:29;;;;;;;5.05;1.23;;;;;;;;;;5075437;28;20723;-60
2022/07/24 08:06:58;;;;;;;5.68;1.42;;;;;;;;;;5075538;28;20231;-60
2022/07/24 08:09:25;;;;;;;7.13;1.67;;;;;;;;;;5075614;28;20227;-60
2022/07/24 08:11:52;;;;;;;8.10;1.88;;;;;;;;;;5075198;28;20277;-61
2022/07/24 08:14:19;;;;;;;4.57;1.55;;;;;;;;;;5074998;28;20577;-58
2022/07/24 08:16:46;;;;;;;7.97;1.58;;;;;;;;;;5075412;28;20292;-59
2022/07/24 08:19:13;;;;;;;2.47;1.10;;;;;;;;;;5075234;28;20246;-61
2022/07/24 08:21:40;;;;;;;5.05;1.65;;;;;;;;;;5075698;28;20227;-60
2022/07/24 08:24:07;;;;;;;6.55;1.20;;;;;;;;;;5074951;28;20215;-60
2022/07/24 08:26:34;;;;;;;8.63;1.50;;;;;;;;;;5075414;28;20284;-60
2022/07/24 08:29:01;;;;;;;9.98;1.88;;;;;;;;;;5074923;28;20259;-60
2022/07/24 08:31:29;;;;;;;3.80;1.13;;;;;;;;;;5074994;28;20321;-60
2022/07/24 08:33:56;;;;;;;10.57;1.80;;;;;;;;;;5074338;28;20231;-60
2022/07/24 08:36:23;;;;;;;8.80;1.35;;;;;;;;;;5075201;28;20226;-59
2022/07/24 08:38:50;;;;;;;5.78;1.13;;;;;;;;;;5074848;28;20231;-61
2022/07/24 08:41:18;;;;;;;2.47;1.30;;;;;;;;;;5074978;28;20223;-60
2022/07/24 08:43:52;;;;;;;3.17;1.23;;;;;;;;;;5074230;28;20230;-61
2022/07/24 08:46:20;;;;;;;5.72;1.27;;;;;;;;;;5074956;28;20235;-58
2022/07/24 08:48:47;;;;;;;4.43;1.40;;;;;;;;;;5074217;28;20223;-60
2022/07/24 08:51:15;;;;;;;3.10;1.13;;;;;;;;;;5074910;28;20227;-58
2022/07/24 08:53:43;;;;;;;3.80;1.05;;;;;;;;;;5074718;28;20223;-58
2022/07/24 08:56:10;;;;;;;3.15;1.42;;;;;;;;;;5074449;28;20349;-59
2022/07/24 08:58:38;;;;;;;7.10;1.30;;;;;;;;;;5073829;28;20243;-59
2022/07/24 09:01:06;;;;;;;3.35;1.10;;;;;;;;;;5074160;28;20883;-59
2022/07/24 09:03:44;;;;;;;2.85;1.08;;;;;;;;;;5074806;28;20256;-59
2022/07/24 09:06:13;;;;;;;4.60;1.05;;;;;;;;;;5074290;28;20223;-57
2022/07/24 09:08:41;;;;;;;6.03;1.45;;;;;;;;;;5074665;28;20289;-58
2022/07/24 09:11:09;;;;;;;3.47;1.10;;;;;;;;;;5074217;28;20224;-59
2022/07/24 09:16:26;;;;;;;6.45;1.27;;;;;;;;;;5074028;28;20227;-60
2022/07/24 09:19:07;;;;;;;3.78;1.10;;;;;;;;;;5073591;28;20231;-60
2022/07/24 09:21:42;;;;;;;3.55;1.17;;;;;;;;;;5074055;28;20229;-61
2022/07/24 09:24:12;;;;;;;4.90;1.42;;;;;;;;;;5073333;28;20231;-59
2022/07/24 09:26:57;;;;;;;4.00;0.93;;;;;;;;;;5074496;28;20227;-58
2022/07/24 09:29:25;;;;;;;4.93;1.40;;;;;;;;;;5073784;28;20227;-59
2022/07/24 09:31:56;;;;;;;15.38;1.83;;;;;;;;;;5068779;28;20231;-58
2022/07/24 09:34:24;;;;;;;2.33;1.20;;;;;;;;;;5073396;28;20239;-58
2022/07/24 09:37:06;;;;;;;3.50;0.90;;;;;;;;;;5073529;28;20677;-60
2022/07/24 09:39:35;;;;;;;2.33;0.98;;;;;;;;;;5074052;28;20588;-59
2022/07/24 09:42:05;;;;;;;2.72;1.00;;;;;;;;;;5064814;28;20224;-59
2022/07/24 09:44:32;;;;;;;4.90;1.30;;;;;;;;;;5053479;28;20227;-58
2022/07/24 09:47:00;;;;;;;2.55;1.13;;;;;;;;;;5104997;28;20231;-58
2022/07/24 09:49:28;;;;;;;3.30;1.10;;;;;;;;;;5067111;28;20243;-59
2022/07/24 09:52:05;;;;;;;4.30;1.10;;;;;;;;;;5053427;28;20262;-58
2022/07/24 09:54:51;;;;;;;5.82;1.02;;;;;;;;;;5058484;28;20678;-59
2022/07/24 09:57:23;;;;;;;7.82;1.35;;;;;;;;;;5053233;28;20666;-59
2022/07/24 09:59:55;;;;;;;4.45;1.08;;;;;;;;;;5072033;28;20274;-59
2022/07/24 10:02:26;;;;;;;6.63;1.02;;;;;;;;;;5073448;28;20234;-59
2022/07/24 10:04:54;;;;;;;5.72;1.10;;;;;;;;;;5073590;28;20257;-59
2022/07/24 10:07:22;;;;;;;5.93;1.00;;;;;;;;;;5072861;28;20285;-58
2022/07/24 10:09:51;;;;;;;2.70;0.93;;;;;;;;;;5073925;28;20296;-59
2022/07/24 10:12:21;;;;;;;8.75;1.20;;;;;;;;;;5073020;28;20293;-59
2022/07/24 10:14:50;;;;;;;2.80;1.13;;;;;;;;;;5073487;28;20234;-59
2022/07/24 10:17:18;;;;;;;3.35;1.00;;;;;;;;;;5079210;28;20269;-59
2022/07/24 10:19:51;;;;;;;1.35;0.90;;;;;;;;;;5073586;28;20235;-59
2022/07/24 10:22:22;;;;;;;4.03;1.10;;;;;;;;;;5073544;28;20231;-59
2022/07/24 10:25:00;;;;;;;2.72;1.13;;;;;;;;;;5073764;28;20227;-58
2022/07/24 10:27:35;;;;;;;4.95;1.30;;;;;;;;;;5072550;28;20231;-59
2022/07/24 10:30:05;;;;;;;8.40;1.20;;;;;;;;;;5073518;28;20222;-57
2022/07/24 10:32:34;;;;;;;1.65;1.00;;;;;;;;;;5073308;28;20666;-58
2022/07/24 10:35:21;;;;;;;3.45;1.20;;;;;;;;;;5074652;28;20243;-57
2022/07/24 10:37:57;;;;;;;2.45;1.17;;;;;;;;;;5077091;28;20654;-57
2022/07/24 10:40:36;;;;;;;5.47;1.23;;;;;;;;;;5079550;28;20301;-58
2022/07/24 10:43:08;;;;;;;10.63;1.13;;;;;;;;;;5095596;28;20272;-57
2022/07/24 10:45:43;;;;;;;3.58;0.90;;;;;;;;;;5097732;28;20236;-57
2022/07/24 10:48:19;;;;;;;4.53;1.00;;;;;;;;;;5097242;28;20222;-57
2022/07/24 10:51:07;;;;;;;5.38;1.08;;;;;;;;;;5097150;28;20223;-55
2022/07/24 10:53:37;;;;;;;3.38;1.20;;;;;;;;;;5097608;28;20238;-52
2022/07/24 10:56:23;;;;;;;2.72;1.00;;;;;;;;;;5097516;28;20223;-57
2022/07/24 10:58:54;;;;;;;1.50;0.75;;;;;;;;;;5096156;28;20253;-53
2022/07/24 11:01:30;;;;;;;8.15;1.15;;;;;;;;;;5078324;28;20227;-58
2022/07/24 11:03:58;;;;;;;2.25;0.80;;;;;;;;;;5078502;28;20564;-57
2022/07/24 11:06:40;;;;;;;2.08;1.02;;;;;;;;;;5086070;28;20218;-55
2022/07/24 11:09:07;;;;;;;2.92;0.98;;;;;;;;;;5084708;28;20242;-52
2022/07/24 11:11:41;;;;;;;5.90;1.35;;;;;;;;;;5076766;28;20230;-56
2022/07/24 11:14:10;;;;;;;3.35;0.98;;;;;;;;;;5076360;28;20223;-50
2022/07/24 11:16:37;;;;;;;1.70;1.00;;;;;;;;;;5077085;28;20822;-50
2022/07/24 11:19:04;;;;;;;1.35;1.00;;;;;;;;;;5075399;28;20277;-56
2022/07/24 11:21:37;;;;;;;1.95;0.98;;;;;;;;;;5076760;28;20577;-54
2022/07/24 11:24:14;;;;;;;1.17;0.98;;;;;;;;;;5076349;28;20235;-55
2022/07/24 11:26:54;;;;;;;1.92;0.90;;;;;;;;;;5075903;28;20227;-57
2022/07/24 11:29:28;;;;;;;2.80;0.75;;;;;;;;;;5076489;28;20231;-55
2022/07/24 11:31:57;;;;;;;1.63;1.08;;;;;;;;;;5075963;28;20830;-55
2022/07/24 11:34:25;;;;;;;3.03;0.82;;;;;;;;;;5076442;28;20242;-54
2022/07/24 11:36:54;;;;;;;1.40;1.10;;;;;;;;;;5076209;28;20242;-53
2022/07/24 11:39:30;;;;;;;2.95;1.05;;;;;;;;;;5076113;28;20674;-53
2022/07/24 11:42:04;;;;;;;2.00;0.98;;;;;;;;;;5075487;28;20223;-54
2022/07/24 11:44:43;;;;;;;3.10;0.90;;;;;;;;;;5076291;28;20226;-56
2022/07/24 11:47:13;;;;;;;2.53;1.10;;;;;;;;;;5075693;28;20227;-56
2022/07/24 11:49:48;;;;;;;1.42;1.00;;;;;;;;;;5078066;28;20361;-58
2022/07/24 11:52:25;;;;;;;3.63;0.93;;;;;;;;;;5082266;28;20246;-58
2022/07/24 11:54:56;;;;;;;4.47;0.70;;;;;;;;;;5085486;28;20223;-58
2022/07/24 11:57:26;;;;;;;2.63;0.88;;;;;;;;;;5083999;28;20594;-58
2022/07/24 12:00:16;;;;;;;2.63;0.75;;;;;;;;;;5089245;28;20234;-58
2022/07/24 12:02:51;;;;;;;1.92;0.57;;;;;;;;;;5086161;28;20242;-59
2022/07/24 12:05:29;;;;;;;2.30;0.80;;;;;;;;;;5081667;28;20273;-59
2022/07/24 12:07:58;;;;;;;3.63;0.90;;;;;;;;;;5082081;28;20222;-60
2022/07/24 12:10:26;;;;;;;1.95;0.68;;;;;;;;;;5084620;28;20226;-59
2022/07/24 12:12:54;;;;;;;1.48;1.08;;;;;;;;;;5068263;28;20288;-61
2022/07/24 12:15:27;;;;;;;1.80;0.95;;;;;;;;;;5082331;28;20677;-60
2022/07/24 12:18:01;;;;;;;1.25;0.85;;;;;;;;;;5083681;28;20704;-61
2022/07/24 12:20:48;;;;;;;3.67;0.70;;;;;;;;;;5083502;28;20231;-60
2022/07/24 12:23:18;;;;;;;2.28;0.88;;;;;;;;;;5079165;28;20687;-58
2022/07/24 12:25:46;;;;;;;4.60;0.85;;;;;;;;;;5083340;28;20229;-60
2022/07/24 12:28:15;;;;;;;1.45;0.80;;;;;;;;;;5086604;28;20250;-60
2022/07/24 12:30:53;;;;;;;1.10;0.60;;;;;;;;;;5092919;28;20222;-58
2022/07/24 12:33:29;;;;;;;1.60;0.70;;;;;;;;;;5080894;28;20603;-55
2022/07/24 12:36:08;;;;;;;1.67;0.90;;;;;;;;;;5081840;28;20214;-57
2022/07/24 12:38:37;;;;;;;1.02;0.60;;;;;;;;;;5083210;28;20324;-58
2022/07/24 12:41:13;;;;;;;1.90;0.70;;;;;;;;;;5085752;28;20234;-58
2022/07/24 12:43:47;;;;;;;1.10;0.80;;;;;;;;;;5095083;28;20287;-57
2022/07/24 12:46:15;;;;;;;1.00;0.90;;;;;;;;;;5091017;28;20219;-57
2022/07/24 12:49:05;;;;;;;1.85;0.80;;;;;;;;;;5082568;28;20256;-58
2022/07/24 12:51:52;;;;;;;3.33;0.90;;;;;;;;;;5094739;28;20605;-58
2022/07/24 12:54:20;;;;;;;2.17;0.80;;;;;;;;;;5094909;28;20222;-57
2022/07/24 12:56:50;;;;;;;0.70;0.70;;;;;;;;;;5086776;28;20231;-57
2022/07/24 12:59:31;;;;;;;1.33;0.65;;;;;;;;;;5073931;28;20257;-57
2022/07/24 13:02:06;;;;;;;2.70;0.80;;;;;;;;;;5074243;28;20231;-58
2022/07/24 13:04:39;;;;;;;2.00;0.80;;;;;;;;;;5074475;28;20681;-57
2022/07/24 13:07:07;;;;;;;2.28;0.80;;;;;;;;;;5074347;28;20231;-58
2022/07/24 13:09:35;;;;;;;1.13;0.75;;;;;;;;;;5074470;28;20704;-58
2022/07/24 13:12:05;;;;;;;9.27;1.00;;;;;;;;;;5073743;28;20658;-58
2022/07/24 13:14:33;;;;;;;1.30;0.80;;;;;;;;;;5073885;28;20223;-58
2022/07/24 13:17:14;;;;;;;2.60;1.05;;;;;;;;;;5079252;28;20229;-58
2022/07/24 13:19:43;;;;;;;1.58;0.70;;;;;;;;;;5082961;28;20238;-56
2022/07/24 13:22:12;;;;;;;1.63;0.85;;;;;;;;;;5080482;28;20290;-58
2022/07/24 13:24:40;;;;;;;2.97;0.82;;;;;;;;;;5083703;28;20218;-58
2022/07/24 13:27:09;;;;;;;1.70;0.73;;;;;;;;;;5083044;28;20223;-58
2022/07/24 13:29:36;;;;;;;3.50;1.02;;;;;;;;;;5084322;28;20219;-58
2022/07/24 13:32:04;;;;;;;4.90;0.85;;;;;;;;;;5082526;28;20634;-58
2022/07/24 13:34:32;;;;;;;3.33;1.00;;;;;;;;;;5080727;28;20557;-58
2022/07/24 13:37:04;;;;;;;2.58;0.60;;;;;;;;;;5082580;28;20305;-58
2022/07/24 13:39:35;;;;;;;5.82;0.70;;;;;;;;;;5084084;28;20222;-57
2022/07/24 13:42:03;;;;;;;2.05;0.77;;;;;;;;;;5079370;28;20318;-58
2022/07/24 13:44:30;;;;;;;4.25;0.98;;;;;;;;;;5081048;28;20646;-58
2022/07/24 13:46:57;;;;;;;2.88;0.73;;;;;;;;;;5093568;28;20562;-58
2022/07/24 13:49:24;;;;;;;3.55;0.80;;;;;;;;;;5094170;28;20234;-58
2022/07/24 13:51:51;;;;;;;0.90;0.70;;;;;;;;;;5093921;28;20580;-58
2022/07/24 13:54:19;;;;;;;1.77;0.70;;;;;;;;;;5094049;28;20241;-56
2022/07/24 13:56:46;;;;;;;2.05;0.68;;;;;;;;;;5079545;28;20219;-57
2022/07/24 13:59:13;;;;;;;1.13;0.57;;;;;;;;;;5076753;28;20301;-57
2022/07/24 14:01:40;;;;;;;2.67;0.93;;;;;;;;;;5065020;28;20292;-57
2022/07/24 14:04:08;;;;;;;0.80;0.57;;;;;;;;;;5062647;28;20663;-58
2022/07/24 14:06:56;;;;;;;4.00;0.90;;;;;;;;;;5082225;28;20219;-57
2022/07/24 14:09:23;;;;;;;0.70;0.60;;;;;;;;;;5086768;28;20599;-59
2022/07/24 14:11:51;;;;;;;1.90;0.70;;;;;;;;;;5088903;28;20225;-58
2022/07/24 14:14:18;;;;;;;3.47;0.70;;;;;;;;;;5087381;28;20660;-59
2022/07/24 14:16:45;;;;;;;2.90;0.70;;;;;;;;;;5095358;28;20315;-59
2022/07/24 14:19:13;;;;;;;4.15;0.80;;;;;;;;;;5090745;28;20233;-59
2022/07/24 14:21:40;;;;;;;2.60;0.75;;;;;;;;;;5094801;28;20258;-58
2022/07/24 14:24:08;;;;;;;1.05;0.68;;;;;;;;;;5097687;28;20257;-58
2022/07/24 14:26:43;;;;;;;1.38;0.77;;;;;;;;;;5095835;28;20233;-58
2022/07/24 14:29:10;;;;;;;5.40;0.80;;;;;;;;;;5098596;28;20202;-58
2022/07/24 14:31:37;;;;;;;1.42;0.60;;;;;;;;;;5098076;28;20210;-58
2022/07/24 14:34:04;;;;;;;3.45;0.82;;;;;;;;;;5098665;28;20648;-58
2022/07/24 14:36:31;;;;;;;1.30;0.80;;;;;;;;;;5099407;28;20209;-58
2022/07/24 14:38:58;;;;;;;2.15;0.90;;;;;;;;;;5098600;28;20206;-58
2022/07/24 14:41:26;;;;;;;3.38;0.82;;;;;;;;;;5098558;28;20237;-58
2022/07/24 14:43:52;;;;;;;2.17;0.80;;;;;;;;;;5098495;28;20289;-58
2022/07/24 14:46:19;;;;;;;2.80;0.93;;;;;;;;;;5098486;28;20199;-58
2022/07/24 14:48:47;;;;;;;2.58;0.70;;;;;;;;;;5098080;28;20217;-58